Terminal Aerodrome Forecast
Issued by NWS Jackson, MS

Home | Current Version | Previous Version | Text Only | Print | Product List | Glossary On
Versions: 1 2 3 4 5 6 7 8 9 10 11 12 13 14
579
FTUS44 KJAN 171747
TAFGWO
TAF
KGWO 171747Z 1718/1818 31008KT P6SM -SHRA BKN005 OVC009
     FM180200 02006KT 6SM BR BKN020 BKN080
     FM181300 08010KT P6SM OVC015=

USA.gov is the U.S. government's official web portal to all federal, state and local government web resources and services.